Time;durP1;ratioP1;P1;durP2;ratioP2;P2;SDS_P1;SDS_P2;PMS_P1;PMS_P2;Temp;Humidity;BMP_temperature;BMP_pressure;BME280_temperature;BME280_humidity;BME280_pressure;Samples;Min_cycle;Max_cycle;Signal;HPM_P1;HPM_P2
2023/03/01 00:00:41;;;;;;;232.18;78.45;;;;;;;;;;6319530;28;20042;-53
2023/03/01 00:03:57;;;;;;;218.10;75.55;;;;;;;;;;6334942;28;20126;-57
2023/03/01 00:06:58;;;;;;;235.35;76.20;;;;;;;;;;6320579;28;20052;-58
2023/03/01 00:09:58;;;;;;;202.90;71.30;;;;;;;;;;6328116;28;20397;-55
2023/03/01 00:12:59;;;;;;;227.85;75.30;;;;;;;;;;6330539;28;20424;-57
2023/03/01 00:16:06;;;;;;;232.70;77.43;;;;;;;;;;6324788;28;20490;-55
2023/03/01 00:19:11;;;;;;;243.38;81.60;;;;;;;;;;6320362;28;20079;-58
2023/03/01 00:22:12;;;;;;;256.33;83.38;;;;;;;;;;6340810;28;20044;-58
2023/03/01 00:25:12;;;;;;;258.35;81.72;;;;;;;;;;6336428;28;20055;-56
2023/03/01 00:28:13;;;;;;;238.60;81.82;;;;;;;;;;6325632;28;20076;-56
2023/03/01 00:31:17;;;;;;;221.00;69.75;;;;;;;;;;6321817;28;20062;-57
2023/03/01 00:34:18;;;;;;;214.75;70.47;;;;;;;;;;6318686;28;20055;-54
2023/03/01 00:37:18;;;;;;;223.38;73.13;;;;;;;;;;6335741;28;20059;-57
2023/03/01 00:40:19;;;;;;;240.23;76.72;;;;;;;;;;6336052;28;20054;-57
2023/03/01 00:43:20;;;;;;;237.90;78.68;;;;;;;;;;6321108;28;20548;-57
2023/03/01 00:46:23;;;;;;;256.40;83.25;;;;;;;;;;6324315;28;20042;-55
2023/03/01 00:49:27;;;;;;;267.63;91.22;;;;;;;;;;6322552;28;20075;-57
2023/03/01 00:52:28;;;;;;;273.10;90.70;;;;;;;;;;6320182;28;20039;-57
2023/03/01 00:55:28;;;;;;;250.90;83.38;;;;;;;;;;6325412;28;20112;-58
2023/03/01 00:58:29;;;;;;;227.82;73.65;;;;;;;;;;6321199;28;20036;-56
2023/03/01 01:01:30;;;;;;;247.25;78.60;;;;;;;;;;6319761;28;20479;-57
2023/03/01 01:04:31;;;;;;;231.45;75.15;;;;;;;;;;6319477;28;20108;-53
2023/03/01 01:07:32;;;;;;;247.30;77.90;;;;;;;;;;6322254;28;20047;-52
2023/03/01 01:10:36;;;;;;;254.95;79.30;;;;;;;;;;6319237;28;20157;-58
2023/03/01 01:13:38;;;;;;;225.95;77.18;;;;;;;;;;6335766;28;20044;-53
2023/03/01 01:16:38;;;;;;;252.60;76.05;;;;;;;;;;6326295;28;20044;-52
2023/03/01 01:19:39;;;;;;;236.63;76.18;;;;;;;;;;6319903;28;20055;-54
2023/03/01 01:22:40;;;;;;;241.55;74.80;;;;;;;;;;6328742;28;20051;-62
2023/03/01 01:25:40;;;;;;;243.95;76.30;;;;;;;;;;6337828;28;20048;-54
2023/03/01 01:28:41;;;;;;;229.40;76.18;;;;;;;;;;6318262;28;20105;-54
2023/03/01 01:31:43;;;;;;;251.77;82.47;;;;;;;;;;6321746;28;20052;-56
2023/03/01 01:34:44;;;;;;;236.88;79.00;;;;;;;;;;6318387;28;20063;-59
2023/03/01 01:37:44;;;;;;;245.57;77.65;;;;;;;;;;6318726;28;20074;-61
2023/03/01 01:40:47;;;;;;;242.73;78.70;;;;;;;;;;6313225;28;20052;-56
2023/03/01 01:44:16;;;;;;;248.45;77.93;;;;;;;;;;6324637;28;20043;-50
2023/03/01 01:47:20;;;;;;;242.98;79.53;;;;;;;;;;6313462;28;20056;-55
2023/03/01 01:50:21;;;;;;;254.20;77.80;;;;;;;;;;6319591;28;20043;-58
2023/03/01 01:53:23;;;;;;;248.80;79.30;;;;;;;;;;6319780;28;20426;-53
2023/03/01 01:56:27;;;;;;;243.73;78.65;;;;;;;;;;6321107;28;20040;-55
2023/03/01 01:59:31;;;;;;;249.88;78.65;;;;;;;;;;6318465;28;20050;-56
2023/03/01 02:02:32;;;;;;;237.63;78.63;;;;;;;;;;6320181;28;20048;-53
2023/03/01 02:05:38;;;;;;;244.60;75.60;;;;;;;;;;6316640;28;20040;-51
2023/03/01 02:08:42;;;;;;;248.95;79.60;;;;;;;;;;6320322;28;20086;-52
2023/03/01 02:11:44;;;;;;;242.68;78.72;;;;;;;;;;6316695;28;20047;-55
2023/03/01 02:14:44;;;;;;;243.63;78.95;;;;;;;;;;6320490;28;20039;-55
2023/03/01 02:17:45;;;;;;;248.13;77.25;;;;;;;;;;6317506;28;20051;-51
2023/03/01 02:21:08;;;;;;;250.82;78.85;;;;;;;;;;6315781;28;20075;-54
2023/03/01 02:24:45;;;;;;;253.23;77.18;;;;;;;;;;6310984;28;20562;-56
2023/03/01 02:28:01;;;;;;;260.02;79.13;;;;;;;;;;6319457;28;20384;-53
2023/03/01 02:34:26;;;;;;;254.77;82.63;;;;;;;;;;6318145;28;20559;-54
2023/03/01 02:37:27;;;;;;;245.90;79.25;;;;;;;;;;6320281;28;20295;-51
2023/03/01 02:40:30;;;;;;;261.98;80.60;;;;;;;;;;6324091;28;20086;-57
2023/03/01 02:43:32;;;;;;;257.35;83.03;;;;;;;;;;6321454;28;20056;-53
2023/03/01 02:46:33;;;;;;;263.20;84.80;;;;;;;;;;6321553;28;20047;-53
2023/03/01 02:49:37;;;;;;;267.75;86.15;;;;;;;;;;6320302;28;20066;-52
2023/03/01 02:52:46;;;;;;;269.95;86.35;;;;;;;;;;6317697;28;22323;-51
2023/03/01 02:55:48;;;;;;;267.77;83.38;;;;;;;;;;6317550;28;20163;-54
2023/03/01 02:58:51;;;;;;;265.15;83.70;;;;;;;;;;6321217;28;20693;-54
2023/03/01 03:01:52;;;;;;;255.93;82.15;;;;;;;;;;6323461;28;20056;-59
2023/03/01 03:04:52;;;;;;;265.30;83.88;;;;;;;;;;6325160;28;20048;-57
2023/03/01 03:07:53;;;;;;;259.27;83.75;;;;;;;;;;6345185;28;20079;-54
2023/03/01 03:10:54;;;;;;;264.13;84.15;;;;;;;;;;6323140;28;20092;-52
2023/03/01 03:13:54;;;;;;;258.48;80.35;;;;;;;;;;6324721;28;20167;-54
2023/03/01 03:16:55;;;;;;;262.98;82.07;;;;;;;;;;6323411;28;20059;-54
2023/03/01 03:19:56;;;;;;;258.98;80.15;;;;;;;;;;6323225;28;20048;-54
2023/03/01 03:23:00;;;;;;;254.05;77.82;;;;;;;;;;6321553;28;20048;-52
2023/03/01 03:26:03;;;;;;;251.43;77.25;;;;;;;;;;6322870;28;20139;-54
2023/03/01 03:29:04;;;;;;;248.23;80.60;;;;;;;;;;6323919;28;20624;-56
2023/03/01 03:32:05;;;;;;;258.00;80.93;;;;;;;;;;6322824;28;20060;-57
2023/03/01 03:35:09;;;;;;;252.77;79.65;;;;;;;;;;6321021;28;20056;-57
2023/03/01 03:38:15;;;;;;;256.25;79.47;;;;;;;;;;6339334;28;20148;-57
2023/03/01 03:41:16;;;;;;;241.65;77.93;;;;;;;;;;6330406;28;20044;-55
2023/03/01 03:44:17;;;;;;;249.45;77.82;;;;;;;;;;6321222;28;20040;-55
2023/03/01 03:47:17;;;;;;;258.25;80.80;;;;;;;;;;6322166;28;20512;-53
2023/03/01 03:50:18;;;;;;;262.23;80.35;;;;;;;;;;6323324;28;20051;-53
2023/03/01 03:53:20;;;;;;;248.80;77.38;;;;;;;;;;6322661;28;20436;-53
2023/03/01 03:56:25;;;;;;;253.23;80.60;;;;;;;;;;6322064;28;20048;-54
2023/03/01 03:59:26;;;;;;;250.77;79.03;;;;;;;;;;6323326;28;20380;-55
2023/03/01 04:02:27;;;;;;;256.10;78.03;;;;;;;;;;6320822;28;20046;-52
2023/03/01 04:05:28;;;;;;;277.73;82.90;;;;;;;;;;6342772;28;20052;-52
2023/03/01 04:08:29;;;;;;;255.13;82.27;;;;;;;;;;6326283;28;20673;-51
2023/03/01 04:11:29;;;;;;;251.93;77.13;;;;;;;;;;6321754;28;20054;-54
2023/03/01 04:14:30;;;;;;;262.10;80.22;;;;;;;;;;6322944;28;20833;-53
2023/03/01 04:17:30;;;;;;;263.00;80.97;;;;;;;;;;6323920;28;20044;-52
2023/03/01 04:20:34;;;;;;;265.23;84.63;;;;;;;;;;6323172;28;20101;-57
2023/03/01 04:23:35;;;;;;;277.27;84.82;;;;;;;;;;6320972;28;20062;-55
2023/03/01 04:26:36;;;;;;;275.02;83.97;;;;;;;;;;6338887;27;20097;-54
2023/03/01 04:29:37;;;;;;;269.05;84.18;;;;;;;;;;6332189;28;20689;-53
2023/03/01 04:32:38;;;;;;;272.20;82.78;;;;;;;;;;6330366;28;20104;-53
2023/03/01 04:35:38;;;;;;;275.27;82.95;;;;;;;;;;6337633;28;20506;-54
2023/03/01 04:38:40;;;;;;;268.83;82.10;;;;;;;;;;6332789;28;20224;-54
2023/03/01 04:41:40;;;;;;;249.32;79.10;;;;;;;;;;6322639;28;20047;-53
2023/03/01 04:44:41;;;;;;;260.77;81.97;;;;;;;;;;6335483;28;20044;-55
2023/03/01 04:47:44;;;;;;;255.95;80.20;;;;;;;;;;6333572;28;20040;-52
2023/03/01 04:50:44;;;;;;;260.02;81.38;;;;;;;;;;6322508;28;20070;-54
2023/03/01 04:53:45;;;;;;;260.50;81.68;;;;;;;;;;6321845;28;20047;-50
2023/03/01 04:56:45;;;;;;;266.30;85.97;;;;;;;;;;6321953;28;20048;-51
2023/03/01 04:59:46;;;;;;;251.75;80.78;;;;;;;;;;6320455;28;20062;-51
2023/03/01 05:02:48;;;;;;;241.43;79.35;;;;;;;;;;6319705;28;20403;-53
2023/03/01 05:05:51;;;;;;;271.10;82.43;;;;;;;;;;6330968;28;20067;-56
2023/03/01 05:08:52;;;;;;;262.73;81.78;;;;;;;;;;6320699;28;20047;-53
2023/03/01 05:11:52;;;;;;;261.13;79.47;;;;;;;;;;6320464;28;20044;-57
2023/03/01 05:14:53;;;;;;;239.32;77.30;;;;;;;;;;6317375;28;20410;-55
2023/03/01 05:17:55;;;;;;;262.52;79.72;;;;;;;;;;6322158;28;20054;-54
2023/03/01 05:21:05;;;;;;;265.65;80.78;;;;;;;;;;6320684;28;20078;-55
2023/03/01 05:24:11;;;;;;;265.52;81.85;;;;;;;;;;6323914;28;20428;-50
2023/03/01 05:27:12;;;;;;;259.35;87.90;;;;;;;;;;6317073;28;20052;-53
2023/03/01 05:30:13;;;;;;;265.08;82.93;;;;;;;;;;6318883;28;20055;-58
2023/03/01 05:33:13;;;;;;;269.95;83.25;;;;;;;;;;6327615;28;20047;-55
2023/03/01 05:36:14;;;;;;;250.95;84.97;;;;;;;;;;6319089;28;20044;-54
2023/03/01 05:39:14;;;;;;;257.20;81.15;;;;;;;;;;6317213;28;20166;-54
2023/03/01 05:42:15;;;;;;;251.75;82.13;;;;;;;;;;6323224;28;20050;-51
2023/03/01 05:45:17;;;;;;;265.77;84.13;;;;;;;;;;6318665;28;20056;-58
2023/03/01 05:48:19;;;;;;;254.13;84.32;;;;;;;;;;6316486;28;20059;-52
2023/03/01 05:51:21;;;;;;;267.58;85.45;;;;;;;;;;6321582;28;20521;-53
2023/03/01 05:54:22;;;;;;;238.07;79.40;;;;;;;;;;6322601;28;20047;-55
2023/03/01 05:57:23;;;;;;;250.07;80.93;;;;;;;;;;6323732;28;20063;-51
2023/03/01 06:00:24;;;;;;;274.50;81.68;;;;;;;;;;6318116;28;20548;-54
2023/03/01 06:03:25;;;;;;;249.93;81.18;;;;;;;;;;6336560;28;20044;-55
2023/03/01 06:06:26;;;;;;;248.98;81.55;;;;;;;;;;6319708;28;20470;-52
2023/03/01 06:09:26;;;;;;;202.50;65.47;;;;;;;;;;6319023;28;20052;-51
2023/03/01 06:12:30;;;;;;;186.35;59.20;;;;;;;;;;6320034;28;20036;-54
2023/03/01 06:15:31;;;;;;;178.20;53.90;;;;;;;;;;6326392;28;20040;-52
2023/03/01 06:18:32;;;;;;;208.30;62.80;;;;;;;;;;6331367;28;20051;-53
2023/03/01 06:21:33;;;;;;;185.05;57.00;;;;;;;;;;6320022;28;20044;-54
2023/03/01 06:24:33;;;;;;;189.13;58.80;;;;;;;;;;6318139;28;20051;-50
2023/03/01 06:27:34;;;;;;;193.15;58.25;;;;;;;;;;6327211;28;20051;-53
2023/03/01 06:30:35;;;;;;;195.85;59.10;;;;;;;;;;6325111;28;20040;-55
2023/03/01 06:33:36;;;;;;;193.32;60.15;;;;;;;;;;6319237;28;20044;-51
2023/03/01 06:36:36;;;;;;;180.13;58.60;;;;;;;;;;6323001;28;20052;-54
2023/03/01 06:39:37;;;;;;;197.52;59.55;;;;;;;;;;6320895;28;20555;-55
2023/03/01 06:42:40;;;;;;;179.23;58.00;;;;;;;;;;6321944;28;20048;-54
2023/03/01 06:45:42;;;;;;;191.05;61.45;;;;;;;;;;6321685;27;20057;-54
2023/03/01 06:48:43;;;;;;;204.48;65.15;;;;;;;;;;6327205;27;20048;-54
2023/03/01 06:51:44;;;;;;;204.50;66.88;;;;;;;;;;6324457;28;20103;-53
2023/03/01 06:54:45;;;;;;;203.00;64.70;;;;;;;;;;6324485;28;20762;-54
2023/03/01 06:57:46;;;;;;;209.25;66.03;;;;;;;;;;6332400;28;20043;-50
2023/03/01 07:00:46;;;;;;;186.40;57.85;;;;;;;;;;6334187;28;20497;-51
2023/03/01 07:03:47;;;;;;;173.95;56.80;;;;;;;;;;6334467;28;20052;-50
2023/03/01 07:06:54;;;;;;;213.05;64.95;;;;;;;;;;6332272;28;20075;-51
2023/03/01 07:09:54;;;;;;;200.68;60.80;;;;;;;;;;6332908;28;20047;-51
2023/03/01 07:12:56;;;;;;;168.02;52.67;;;;;;;;;;6334638;28;20051;-50
2023/03/01 07:15:57;;;;;;;164.50;53.53;;;;;;;;;;6330431;27;20471;-52
2023/03/01 07:18:57;;;;;;;179.93;52.17;;;;;;;;;;6334418;28;20042;-53
2023/03/01 07:21:58;;;;;;;177.55;53.80;;;;;;;;;;6334295;28;20091;-52
2023/03/01 07:24:58;;;;;;;188.57;56.95;;;;;;;;;;6329731;28;20462;-57
2023/03/01 07:27:59;;;;;;;183.05;59.05;;;;;;;;;;6324230;28;20055;-53
2023/03/01 07:31:04;;;;;;;205.30;63.28;;;;;;;;;;6323385;28;20039;-54
2023/03/01 07:34:05;;;;;;;194.80;60.80;;;;;;;;;;6326037;27;20052;-53
2023/03/01 07:37:05;;;;;;;212.27;64.75;;;;;;;;;;6319575;28;20402;-51
2023/03/01 07:40:07;;;;;;;202.48;63.15;;;;;;;;;;6322084;28;20042;-54
2023/03/01 07:43:07;;;;;;;228.47;68.57;;;;;;;;;;6320329;28;20449;-54
2023/03/01 07:46:08;;;;;;;198.57;63.63;;;;;;;;;;6322391;28;20055;-56
2023/03/01 07:49:09;;;;;;;207.38;62.63;;;;;;;;;;6320452;28;20160;-55
2023/03/01 07:52:11;;;;;;;175.23;56.75;;;;;;;;;;6320698;28;20054;-51
2023/03/01 07:55:12;;;;;;;170.75;56.72;;;;;;;;;;6317589;28;20040;-56
2023/03/01 07:58:13;;;;;;;196.85;61.83;;;;;;;;;;6318254;28;20040;-54
2023/03/01 08:01:16;;;;;;;157.15;50.83;;;;;;;;;;6323951;28;20104;-53
2023/03/01 08:04:17;;;;;;;146.25;47.65;;;;;;;;;;6319579;28;20394;-53
2023/03/01 08:07:17;;;;;;;138.98;44.78;;;;;;;;;;6318603;28;20044;-53
2023/03/01 08:10:18;;;;;;;131.55;39.63;;;;;;;;;;6321350;28;20040;-56
2023/03/01 08:13:22;;;;;;;152.48;49.05;;;;;;;;;;6321450;28;20472;-55
2023/03/01 08:16:23;;;;;;;172.57;54.72;;;;;;;;;;6323614;28;20044;-54
2023/03/01 08:19:23;;;;;;;260.15;67.63;;;;;;;;;;6319688;28;20044;-55
2023/03/01 08:22:24;;;;;;;218.60;65.13;;;;;;;;;;6327176;28;20043;-52
2023/03/01 08:25:25;;;;;;;198.43;60.47;;;;;;;;;;6332020;28;20042;-60
2023/03/01 08:28:25;;;;;;;210.52;60.10;;;;;;;;;;6335717;28;20055;-54
2023/03/01 08:31:30;;;;;;;199.30;61.45;;;;;;;;;;6329718;28;20044;-53
2023/03/01 08:34:31;;;;;;;194.13;57.33;;;;;;;;;;6331664;28;20183;-52
2023/03/01 08:37:33;;;;;;;191.00;59.25;;;;;;;;;;6338575;28;20048;-54
2023/03/01 08:40:33;;;;;;;155.25;49.63;;;;;;;;;;6325709;28;20063;-53
2023/03/01 08:43:34;;;;;;;198.75;58.03;;;;;;;;;;6318535;28;20406;-55
2023/03/01 08:46:40;;;;;;;175.85;53.60;;;;;;;;;;6321822;28;20044;-54
2023/03/01 08:49:40;;;;;;;183.38;57.75;;;;;;;;;;6332146;28;20048;-56
2023/03/01 08:52:41;;;;;;;177.57;54.25;;;;;;;;;;6317175;28;20090;-57
2023/03/01 08:55:41;;;;;;;105.03;33.67;;;;;;;;;;6317600;28;20055;-54
2023/03/01 08:58:47;;;;;;;114.15;34.60;;;;;;;;;;6324100;28;20409;-54
2023/03/01 09:01:47;;;;;;;106.38;33.72;;;;;;;;;;6317954;28;20047;-53
2023/03/01 09:04:48;;;;;;;101.53;32.40;;;;;;;;;;6321977;28;20044;-52
2023/03/01 09:07:48;;;;;;;98.15;31.23;;;;;;;;;;6320014;28;20044;-55
2023/03/01 09:10:49;;;;;;;102.60;31.63;;;;;;;;;;6318386;28;20077;-53
2023/03/01 09:13:50;;;;;;;101.47;33.47;;;;;;;;;;6317564;28;20548;-54
2023/03/01 09:16:51;;;;;;;88.70;27.15;;;;;;;;;;6319499;28;20058;-60
2023/03/01 09:19:51;;;;;;;103.65;33.00;;;;;;;;;;6318476;28;20860;-55
2023/03/01 09:22:52;;;;;;;108.10;32.70;;;;;;;;;;6319948;28;20051;-50
2023/03/01 09:25:53;;;;;;;92.50;29.15;;;;;;;;;;6317001;28;20043;-54
2023/03/01 09:28:55;;;;;;;86.75;27.90;;;;;;;;;;6316014;28;20592;-52
2023/03/01 09:31:56;;;;;;;89.43;28.23;;;;;;;;;;6318205;28;20048;-53
2023/03/01 09:35:05;;;;;;;80.07;27.85;;;;;;;;;;6319804;28;20070;-53
2023/03/01 09:38:06;;;;;;;81.43;28.02;;;;;;;;;;6318883;28;20067;-53
2023/03/01 09:41:41;;;;;;;89.25;29.77;;;;;;;;;;6331381;28;20471;-54
2023/03/01 09:44:54;;;;;;;92.97;29.00;;;;;;;;;;6331575;28;20048;-55
2023/03/01 09:47:55;;;;;;;96.60;29.17;;;;;;;;;;6328945;28;20051;-53
2023/03/01 09:50:57;;;;;;;85.38;27.63;;;;;;;;;;6330166;28;20116;-55
2023/03/01 09:54:00;;;;;;;83.20;28.43;;;;;;;;;;6336468;28;20055;-56
2023/03/01 09:57:07;;;;;;;87.22;29.05;;;;;;;;;;6332981;28;20510;-56
2023/03/01 10:00:24;;;;;;;97.07;31.83;;;;;;;;;;6325348;28;20479;-57
2023/03/01 10:03:31;;;;;;;105.25;35.17;;;;;;;;;;6320780;28;20123;-60
2023/03/01 10:06:32;;;;;;;91.63;31.38;;;;;;;;;;6319578;28;20139;-60
2023/03/01 10:09:36;;;;;;;94.30;30.88;;;;;;;;;;6321317;28;20050;-54
2023/03/01 10:12:41;;;;;;;91.53;29.67;;;;;;;;;;6320914;28;20492;-54
2023/03/01 10:15:47;;;;;;;105.43;30.88;;;;;;;;;;6320986;28;20045;-57
2023/03/01 10:18:57;;;;;;;94.50;33.10;;;;;;;;;;6337529;28;20122;-56
2023/03/01 10:22:07;;;;;;;104.68;34.50;;;;;;;;;;6323533;28;20051;-60
2023/03/01 10:25:13;;;;;;;102.68;33.88;;;;;;;;;;6326851;28;20047;-55
2023/03/01 10:28:35;;;;;;;103.97;37.55;;;;;;;;;;6343145;28;20057;-52
2023/03/01 10:32:08;;;;;;;105.00;33.53;;;;;;;;;;6334020;28;20138;-55
2023/03/01 10:35:18;;;;;;;;;;;;;;;;;;6319765;28;20503;-57
2023/03/01 10:38:20;;;;;;;108.70;34.20;;;;;;;;;;6319619;28;19924;-54
2023/03/01 10:41:24;;;;;;;122.57;37.23;;;;;;;;;;6331177;28;20051;-56
2023/03/01 10:44:42;;;;;;;121.35;37.10;;;;;;;;;;6329141;28;20404;-54
2023/03/01 10:47:43;;;;;;;121.15;38.50;;;;;;;;;;6344640;28;20334;-58
2023/03/01 10:50:49;;;;;;;129.40;42.30;;;;;;;;;;6326332;28;20044;-55
2023/03/01 10:53:51;;;;;;;149.38;45.42;;;;;;;;;;6342207;28;20048;-53
2023/03/01 10:56:58;;;;;;;143.68;45.50;;;;;;;;;;6319544;28;20044;-54
2023/03/01 11:00:24;;;;;;;144.65;44.15;;;;;;;;;;6335794;28;20043;-55
2023/03/01 11:03:29;;;;;;;147.30;44.42;;;;;;;;;;6344631;28;20093;-52
2023/03/01 11:06:29;;;;;;;139.40;46.33;;;;;;;;;;6321383;28;20052;-51
2023/03/01 11:09:39;;;;;;;147.82;44.65;;;;;;;;;;6323743;28;20055;-55
2023/03/01 11:12:40;;;;;;;160.38;45.85;;;;;;;;;;6323619;28;20130;-53
2023/03/01 11:15:41;;;;;;;129.90;42.13;;;;;;;;;;6322286;28;20127;-54
2023/03/01 11:18:42;;;;;;;127.07;43.05;;;;;;;;;;6321921;28;20051;-55
2023/03/01 11:22:00;;;;;;;131.50;41.30;;;;;;;;;;6321399;28;20048;-57
2023/03/01 11:25:01;;;;;;;120.75;37.80;;;;;;;;;;6322688;28;20044;-55
2023/03/01 11:28:04;;;;;;;119.88;36.58;;;;;;;;;;6321175;28;20143;-57
2023/03/01 11:31:15;;;;;;;114.95;36.88;;;;;;;;;;6320344;28;20193;-59
2023/03/01 11:34:23;;;;;;;124.57;39.67;;;;;;;;;;6323323;28;20036;-55
2023/03/01 11:37:33;;;;;;;116.70;38.20;;;;;;;;;;6322597;28;20043;-54
2023/03/01 11:40:46;;;;;;;117.85;37.80;;;;;;;;;;6324765;28;20048;-56
2023/03/01 11:43:49;;;;;;;121.38;42.05;;;;;;;;;;6323208;28;20035;-56
2023/03/01 11:47:27;;;;;;;122.55;39.63;;;;;;;;;;6323625;28;20048;-56
2023/03/01 11:50:27;;;;;;;132.70;42.35;;;;;;;;;;6324344;28;21333;-54
2023/03/01 11:53:28;;;;;;;147.75;45.33;;;;;;;;;;6323472;28;20117;-50
2023/03/01 11:56:35;;;;;;;138.43;46.05;;;;;;;;;;6320923;28;20507;-50
2023/03/01 11:59:57;;;;;;;120.55;38.70;;;;;;;;;;6326124;28;20042;-53
2023/03/01 12:03:11;;;;;;;129.10;40.17;;;;;;;;;;6326841;28;20051;-54
2023/03/01 12:06:34;;;;;;;129.50;41.08;;;;;;;;;;6344164;27;20048;-57
2023/03/01 12:09:38;;;;;;;;;;;;;;;;;;6336111;28;20040;-53
2023/03/01 12:12:58;;;;;;;110.80;36.30;;;;;;;;;;6327556;28;20459;-55
2023/03/01 12:16:15;;;;;;;111.05;36.05;;;;;;;;;;6322967;28;20118;-54
2023/03/01 12:19:53;;;;;;;91.70;31.52;;;;;;;;;;6337047;28;20063;-54
2023/03/01 12:23:18;;;;;;;94.05;30.77;;;;;;;;;;6313238;28;20500;-53
2023/03/01 12:26:35;;;;;;;91.82;31.25;;;;;;;;;;6319615;28;20096;-53
2023/03/01 12:30:04;;;;;;;84.57;30.50;;;;;;;;;;6321091;28;20475;-51
2023/03/01 12:33:26;;;;;;;99.63;29.27;;;;;;;;;;6319079;28;20051;-56
2023/03/01 12:36:42;;;;;;;103.57;32.80;;;;;;;;;;6321019;28;20054;-56
2023/03/01 12:40:04;;;;;;;85.75;28.35;;;;;;;;;;6321611;28;20048;-52
2023/03/01 12:43:18;;;;;;;93.22;31.55;;;;;;;;;;6321020;28;20156;-56
2023/03/01 12:46:41;;;;;;;90.15;29.88;;;;;;;;;;6321141;28;20058;-51
2023/03/01 12:49:53;;;;;;;88.97;30.88;;;;;;;;;;6322095;28;20048;-53
2023/03/01 12:52:57;;;;;;;89.63;29.17;;;;;;;;;;6322815;28;20050;-54
2023/03/01 12:56:06;;;;;;;86.47;27.83;;;;;;;;;;6321331;28;20730;-52
2023/03/01 12:59:31;;;;;;;75.70;26.90;;;;;;;;;;6322672;28;20047;-54
2023/03/01 13:02:48;;;;;;;76.72;27.55;;;;;;;;;;6319255;28;20508;-52
2023/03/01 13:06:01;;;;;;;80.95;29.88;;;;;;;;;;6321663;28;20044;-51
2023/03/01 13:09:11;;;;;;;;;;;;;;;;;;6321421;28;20052;-54
2023/03/01 13:12:49;;;;;;;69.22;24.73;;;;;;;;;;6318248;27;19924;-55
2023/03/01 13:15:51;;;;;;;83.88;28.23;;;;;;;;;;6319439;28;20380;-56
2023/03/01 13:19:06;;;;;;;71.28;26.73;;;;;;;;;;6320515;28;20040;-54
2023/03/01 13:22:29;;;;;;;76.78;26.35;;;;;;;;;;6331169;28;20142;-60
2023/03/01 13:25:29;;;;;;;;;;;;;;;;;;6328276;28;20050;-56
2023/03/01 13:28:34;;;;;;;69.72;24.30;;;;;;;;;;6321702;28;19927;-53
2023/03/01 13:31:38;;;;;;;73.30;28.23;;;;;;;;;;6319261;28;20059;-55
2023/03/01 13:34:42;;;;;;;57.35;21.65;;;;;;;;;;6319151;28;20108;-53
2023/03/01 13:37:44;;;;;;;61.10;21.83;;;;;;;;;;6322040;28;20036;-52
2023/03/01 13:40:44;;;;;;;70.05;24.50;;;;;;;;;;6318840;28;20048;-54
2023/03/01 13:43:46;;;;;;;65.45;22.73;;;;;;;;;;6320427;28;20047;-54
2023/03/01 13:46:48;;;;;;;58.47;22.38;;;;;;;;;;6320497;28;20047;-55
2023/03/01 13:49:59;;;;;;;57.00;22.40;;;;;;;;;;6322595;28;20048;-54
2023/03/01 13:53:04;;;;;;;69.63;24.23;;;;;;;;;;6320869;28;20082;-56
2023/03/01 13:56:21;;;;;;;65.80;23.15;;;;;;;;;;6321836;28;20498;-53
2023/03/01 13:59:22;;;;;;;70.35;25.00;;;;;;;;;;6332580;28;20097;-53
2023/03/01 14:02:23;;;;;;;64.73;23.37;;;;;;;;;;6318940;28;20044;-53
2023/03/01 14:05:23;;;;;;;63.00;24.08;;;;;;;;;;6317614;28;20085;-54
2023/03/01 14:08:26;;;;;;;62.90;22.35;;;;;;;;;;6320552;28;20047;-53
2023/03/01 14:11:39;;;;;;;61.72;21.20;;;;;;;;;;6317100;28;20066;-54
2023/03/01 14:14:52;;;;;;;63.85;23.13;;;;;;;;;;6320559;28;20173;-51
2023/03/01 14:17:59;;;;;;;54.75;21.00;;;;;;;;;;6321044;28;20459;-53
2023/03/01 14:21:00;;;;;;;58.70;21.92;;;;;;;;;;6320399;28;20058;-53
2023/03/01 14:24:01;;;;;;;57.70;21.55;;;;;;;;;;6321788;28;20840;-51
2023/03/01 14:27:02;;;;;;;55.65;20.00;;;;;;;;;;6331334;28;20062;-53
2023/03/01 14:30:12;;;;;;;50.63;20.25;;;;;;;;;;6317058;28;20040;-52
2023/03/01 14:33:21;;;;;;;55.15;20.88;;;;;;;;;;6318304;28;20048;-53
2023/03/01 14:36:28;;;;;;;56.67;20.15;;;;;;;;;;6332425;28;20051;-51
2023/03/01 14:39:32;;;;;;;63.80;21.52;;;;;;;;;;6323087;28;20039;-53
2023/03/01 14:42:35;;;;;;;54.42;20.02;;;;;;;;;;6320893;28;20067;-54
2023/03/01 14:45:36;;;;;;;64.70;22.10;;;;;;;;;;6322108;28;20067;-56
2023/03/01 14:48:37;;;;;;;58.20;19.98;;;;;;;;;;6321792;28;20052;-52
2023/03/01 14:51:45;;;;;;;57.95;20.73;;;;;;;;;;6326687;28;20473;-54
2023/03/01 14:54:51;;;;;;;57.80;20.33;;;;;;;;;;6328781;28;20413;-54
2023/03/01 14:57:52;;;;;;;51.45;20.33;;;;;;;;;;6325529;28;20051;-58
2023/03/01 15:00:58;;;;;;;49.80;18.80;;;;;;;;;;6322640;28;20441;-54
2023/03/01 15:04:01;;;;;;;49.05;19.10;;;;;;;;;;6325116;27;20078;-54
2023/03/01 15:07:04;;;;;;;50.92;19.38;;;;;;;;;;6322420;28;20417;-57
2023/03/01 15:10:07;;;;;;;48.88;20.85;;;;;;;;;;6322323;28;20036;-51
2023/03/01 15:13:22;;;;;;;55.90;19.92;;;;;;;;;;6325088;28;20414;-55
2023/03/01 15:16:28;;;;;;;54.95;19.85;;;;;;;;;;6323552;28;20066;-51
2023/03/01 15:19:30;;;;;;;48.15;17.48;;;;;;;;;;6320422;28;20917;-50
2023/03/01 15:22:31;;;;;;;55.53;20.53;;;;;;;;;;6332898;28;20047;-56
2023/03/01 15:25:33;;;;;;;49.70;19.02;;;;;;;;;;6332346;27;20449;-53
2023/03/01 15:28:40;;;;;;;48.60;18.95;;;;;;;;;;6336755;27;20073;-55
2023/03/01 15:31:41;;;;;;;46.50;19.13;;;;;;;;;;6335217;28;20107;-57
2023/03/01 15:34:42;;;;;;;56.15;20.00;;;;;;;;;;6331336;28;20047;-55
2023/03/01 15:37:48;;;;;;;56.05;20.80;;;;;;;;;;6335178;28;20436;-55
2023/03/01 15:40:50;;;;;;;53.08;19.75;;;;;;;;;;6334546;27;20053;-54
2023/03/01 15:43:53;;;;;;;54.40;20.33;;;;;;;;;;6332318;27;20056;-54
2023/03/01 15:46:56;;;;;;;55.70;21.25;;;;;;;;;;6335554;27;20134;-52
2023/03/01 15:49:57;;;;;;;;;;;;;;;;;;6334512;28;20081;-50
2023/03/01 15:53:00;;;;;;;53.40;18.85;;;;;;;;;;6334984;27;19924;-54
2023/03/01 15:56:00;;;;;;;58.83;20.25;;;;;;;;;;6331848;28;20055;-54
2023/03/01 15:59:02;;;;;;;54.78;19.92;;;;;;;;;;6329679;28;20065;-55
2023/03/01 16:02:08;;;;;;;51.60;20.17;;;;;;;;;;6327206;28;20593;-60
2023/03/01 16:05:23;;;;;;;50.72;19.73;;;;;;;;;;6327134;27;20289;-54
2023/03/01 16:08:23;;;;;;;56.15;20.27;;;;;;;;;;6329600;27;20418;-53
2023/03/01 16:11:24;;;;;;;61.00;23.73;;;;;;;;;;6334499;27;20051;-53
2023/03/01 16:14:25;;;;;;;76.70;31.35;;;;;;;;;;6331802;28;20413;-51
2023/03/01 16:17:25;;;;;;;82.68;30.05;;;;;;;;;;6333097;27;20081;-56
2023/03/01 16:20:28;;;;;;;96.97;32.33;;;;;;;;;;6330919;27;20047;-48
2023/03/01 16:23:28;;;;;;;102.28;38.63;;;;;;;;;;6328991;28;20055;-58
2023/03/01 16:26:29;;;;;;;87.75;35.95;;;;;;;;;;6330861;28;20055;-56
2023/03/01 16:29:30;;;;;;;78.50;30.73;;;;;;;;;;6331326;28;20058;-59
2023/03/01 16:32:30;;;;;;;78.40;31.90;;;;;;;;;;6331542;28;20077;-54
2023/03/01 16:35:31;;;;;;;106.13;46.03;;;;;;;;;;6330930;27;20064;-54
2023/03/01 16:38:32;;;;;;;87.32;37.92;;;;;;;;;;6331950;27;20436;-53
2023/03/01 16:41:32;;;;;;;90.68;38.20;;;;;;;;;;6329793;27;20056;-59
2023/03/01 16:44:33;;;;;;;86.60;35.15;;;;;;;;;;6329625;27;20058;-49
2023/03/01 16:47:34;;;;;;;92.25;33.83;;;;;;;;;;6330915;28;20134;-60
2023/03/01 16:50:34;;;;;;;114.10;37.47;;;;;;;;;;6333722;27;20047;-55
2023/03/01 16:53:36;;;;;;;99.75;35.03;;;;;;;;;;6330507;28;20558;-55
2023/03/01 16:56:38;;;;;;;99.68;39.28;;;;;;;;;;6332598;27;20100;-53
2023/03/01 16:59:39;;;;;;;131.27;50.65;;;;;;;;;;6333728;28;20126;-52
2023/03/01 17:02:40;;;;;;;131.00;55.38;;;;;;;;;;6331600;27;20516;-52
2023/03/01 17:05:41;;;;;;;141.03;58.10;;;;;;;;;;6331591;27;20154;-53
2023/03/01 17:08:42;;;;;;;128.55;52.58;;;;;;;;;;6332977;28;20047;-57
2023/03/01 17:11:43;;;;;;;121.63;51.78;;;;;;;;;;6331806;28;20126;-53
2023/03/01 17:14:43;;;;;;;158.35;62.63;;;;;;;;;;6683709;22;20067;-57
2023/03/01 17:17:44;;;;;;;171.93;65.22;;;;;;;;;;6245087;28;20049;-58
2023/03/01 17:20:45;;;;;;;126.93;50.30;;;;;;;;;;6247608;28;20049;-58
2023/03/01 17:23:46;;;;;;;146.90;57.13;;;;;;;;;;6246995;28;20056;-61
2023/03/01 17:26:47;;;;;;;118.63;46.70;;;;;;;;;;6246812;28;20061;-61
2023/03/01 17:29:48;;;;;;;114.93;44.70;;;;;;;;;;6251688;28;20051;-60
2023/03/01 17:32:48;;;;;;;122.03;46.00;;;;;;;;;;6249404;28;20053;-58
2023/03/01 17:35:49;;;;;;;151.50;52.42;;;;;;;;;;6242643;28;20483;-57
2023/03/01 17:38:50;;;;;;;144.77;50.88;;;;;;;;;;6244898;28;20498;-59
2023/03/01 17:41:53;;;;;;;150.07;54.40;;;;;;;;;;6251295;28;20072;-61
2023/03/01 17:44:53;;;;;;;164.63;53.75;;;;;;;;;;6239946;28;20467;-60
2023/03/01 17:47:54;;;;;;;148.43;50.25;;;;;;;;;;6241085;28;20053;-60